Atlanta, Georgia
Traffic Map
Current Weather Conditions
Atlanta, Georgia
Broken Clouds
Broken Clouds
16°
Feels Like: 16°
Wind Chill: 16° Ceiling: 6500
Heat Index: 16° Visibility: 10mi
Dew Point: Wind: 13mph
Humidity: 53% Direction: 300° (WNW)
Pressure: 29.91in Gusts: 0mph
Raw Report DataKATL 311752Z 30011KT 10SM FEW040 BKN065 BKN100 16/06 A2991 RMK AO2 SLP126 VIRGA DSNT E & SW & NW T01560061 10172 20072 58010
Traffic Incident Summary
Active as of:
Severity:
Category:
InformationThere was an issue retrieving the traffic information for this location. Please try a different location or try again shortly.
Advertisements
Track Severe Weather on mobile